sensor_id;sensor_type;location;lat;lon;timestamp;P1;durP1;ratioP1;P2;durP2;ratioP2
12177;SDS011;6152;48.728;9.256;2023-03-01T00:01:33;15.93;;;9.17;;
12177;SDS011;6152;48.728;9.256;2023-03-01T00:03:59;14.63;;;9.07;;
12177;SDS011;6152;48.728;9.256;2023-03-01T00:06:27;14.43;;;8.80;;
12177;SDS011;6152;48.728;9.256;2023-03-01T00:08:53;18.23;;;8.73;;
12177;SDS011;6152;48.728;9.256;2023-03-01T00:11:21;14.63;;;8.27;;
12177;SDS011;6152;48.728;9.256;2023-03-01T00:13:50;15.47;;;8.70;;
12177;SDS011;6152;48.728;9.256;2023-03-01T00:16:19;14.80;;;8.80;;
12177;SDS011;6152;48.728;9.256;2023-03-01T00:18:48;16.03;;;9.90;;
12177;SDS011;6152;48.728;9.256;2023-03-01T00:21:15;15.43;;;8.33;;
12177;SDS011;6152;48.728;9.256;2023-03-01T00:23:42;13.53;;;8.37;;
12177;SDS011;6152;48.728;9.256;2023-03-01T00:26:09;16.10;;;9.07;;
12177;SDS011;6152;48.728;9.256;2023-03-01T00:28:37;12.73;;;8.27;;
12177;SDS011;6152;48.728;9.256;2023-03-01T00:31:04;14.60;;;9.03;;
12177;SDS011;6152;48.728;9.256;2023-03-01T00:33:31;14.33;;;8.73;;
12177;SDS011;6152;48.728;9.256;2023-03-01T00:35:58;16.07;;;9.23;;
12177;SDS011;6152;48.728;9.256;2023-03-01T00:38:25;16.13;;;9.70;;
12177;SDS011;6152;48.728;9.256;2023-03-01T00:40:51;13.60;;;9.13;;
12177;SDS011;6152;48.728;9.256;2023-03-01T00:43:17;16.33;;;9.07;;
12177;SDS011;6152;48.728;9.256;2023-03-01T00:45:44;16.87;;;9.17;;
12177;SDS011;6152;48.728;9.256;2023-03-01T00:48:10;16.23;;;9.17;;
12177;SDS011;6152;48.728;9.256;2023-03-01T00:50:36;14.90;;;8.67;;
12177;SDS011;6152;48.728;9.256;2023-03-01T00:53:02;15.97;;;9.27;;
12177;SDS011;6152;48.728;9.256;2023-03-01T00:55:30;14.00;;;8.97;;
12177;SDS011;6152;48.728;9.256;2023-03-01T00:57:56;15.13;;;8.87;;
12177;SDS011;6152;48.728;9.256;2023-03-01T01:00:22;16.83;;;9.47;;
12177;SDS011;6152;48.728;9.256;2023-03-01T01:02:48;15.70;;;9.30;;
12177;SDS011;6152;48.728;9.256;2023-03-01T01:05:14;16.67;;;9.93;;
12177;SDS011;6152;48.728;9.256;2023-03-01T01:07:45;16.77;;;9.80;;
12177;SDS011;6152;48.728;9.256;2023-03-01T01:10:12;17.50;;;10.67;;
12177;SDS011;6152;48.728;9.256;2023-03-01T01:12:42;17.97;;;10.80;;
12177;SDS011;6152;48.728;9.256;2023-03-01T01:15:09;17.60;;;10.00;;
12177;SDS011;6152;48.728;9.256;2023-03-01T01:17:38;17.13;;;9.37;;
12177;SDS011;6152;48.728;9.256;2023-03-01T01:20:04;16.80;;;9.57;;
12177;SDS011;6152;48.728;9.256;2023-03-01T01:22:30;16.27;;;9.40;;
12177;SDS011;6152;48.728;9.256;2023-03-01T01:24:56;17.77;;;10.23;;
12177;SDS011;6152;48.728;9.256;2023-03-01T01:27:23;18.67;;;9.87;;
12177;SDS011;6152;48.728;9.256;2023-03-01T01:29:49;17.87;;;10.30;;
12177;SDS011;6152;48.728;9.256;2023-03-01T01:32:17;21.47;;;9.97;;
12177;SDS011;6152;48.728;9.256;2023-03-01T01:34:43;16.80;;;9.67;;
12177;SDS011;6152;48.728;9.256;2023-03-01T01:37:09;17.23;;;10.17;;
12177;SDS011;6152;48.728;9.256;2023-03-01T01:39:35;17.67;;;10.03;;
12177;SDS011;6152;48.728;9.256;2023-03-01T01:42:01;17.93;;;9.37;;
12177;SDS011;6152;48.728;9.256;2023-03-01T01:44:28;17.93;;;9.63;;
12177;SDS011;6152;48.728;9.256;2023-03-01T01:49:35;17.87;;;10.27;;
12177;SDS011;6152;48.728;9.256;2023-03-01T01:54:38;18.67;;;10.33;;
12177;SDS011;6152;48.728;9.256;2023-03-01T01:57:13;17.10;;;9.80;;
12177;SDS011;6152;48.728;9.256;2023-03-01T01:59:45;17.33;;;9.70;;
12177;SDS011;6152;48.728;9.256;2023-03-01T02:02:17;19.87;;;10.67;;
12177;SDS011;6152;48.728;9.256;2023-03-01T02:04:44;14.87;;;9.47;;
12177;SDS011;6152;48.728;9.256;2023-03-01T02:07:14;20.37;;;10.03;;
12177;SDS011;6152;48.728;9.256;2023-03-01T02:09:43;18.00;;;9.83;;
12177;SDS011;6152;48.728;9.256;2023-03-01T02:12:13;17.07;;;10.00;;
12177;SDS011;6152;48.728;9.256;2023-03-01T02:14:42;16.70;;;9.37;;
12177;SDS011;6152;48.728;9.256;2023-03-01T02:17:08;16.10;;;9.53;;
12177;SDS011;6152;48.728;9.256;2023-03-01T02:22:20;17.17;;;9.90;;
12177;SDS011;6152;48.728;9.256;2023-03-01T02:25:01;17.33;;;10.57;;
12177;SDS011;6152;48.728;9.256;2023-03-01T02:30:23;16.97;;;9.90;;
12177;SDS011;6152;48.728;9.256;2023-03-01T02:32:51;16.93;;;10.27;;
12177;SDS011;6152;48.728;9.256;2023-03-01T02:35:19;17.60;;;10.17;;
12177;SDS011;6152;48.728;9.256;2023-03-01T02:37:46;17.00;;;10.10;;
12177;SDS011;6152;48.728;9.256;2023-03-01T02:40:16;17.73;;;9.53;;
12177;SDS011;6152;48.728;9.256;2023-03-01T02:42:51;16.67;;;9.63;;
12177;SDS011;6152;48.728;9.256;2023-03-01T02:45:19;15.77;;;10.67;;
12177;SDS011;6152;48.728;9.256;2023-03-01T02:47:46;17.67;;;10.77;;
12177;SDS011;6152;48.728;9.256;2023-03-01T02:52:55;18.13;;;9.83;;
12177;SDS011;6152;48.728;9.256;2023-03-01T02:55:33;16.73;;;9.30;;
12177;SDS011;6152;48.728;9.256;2023-03-01T02:57:59;17.90;;;9.97;;
12177;SDS011;6152;48.728;9.256;2023-03-01T03:00:36;17.50;;;10.40;;
12177;SDS011;6152;48.728;9.256;2023-03-01T03:03:09;16.37;;;10.57;;
12177;SDS011;6152;48.728;9.256;2023-03-01T03:05:38;17.77;;;10.77;;
12177;SDS011;6152;48.728;9.256;2023-03-01T03:08:05;22.83;;;11.30;;
12177;SDS011;6152;48.728;9.256;2023-03-01T03:10:33;20.93;;;11.20;;
12177;SDS011;6152;48.728;9.256;2023-03-01T03:13:03;18.10;;;10.00;;
12177;SDS011;6152;48.728;9.256;2023-03-01T03:15:32;16.20;;;10.40;;
12177;SDS011;6152;48.728;9.256;2023-03-01T03:18:04;19.27;;;11.37;;
12177;SDS011;6152;48.728;9.256;2023-03-01T03:20:32;18.93;;;11.27;;
12177;SDS011;6152;48.728;9.256;2023-03-01T03:22:58;18.03;;;10.77;;
12177;SDS011;6152;48.728;9.256;2023-03-01T03:25:25;16.67;;;10.23;;
12177;SDS011;6152;48.728;9.256;2023-03-01T03:27:53;17.23;;;9.67;;
12177;SDS011;6152;48.728;9.256;2023-03-01T03:30:24;19.37;;;11.00;;
12177;SDS011;6152;48.728;9.256;2023-03-01T03:32:55;21.60;;;11.17;;
12177;SDS011;6152;48.728;9.256;2023-03-01T03:35:26;17.13;;;10.10;;
12177;SDS011;6152;48.728;9.256;2023-03-01T03:37:55;18.77;;;10.40;;
12177;SDS011;6152;48.728;9.256;2023-03-01T03:40:33;15.43;;;10.03;;
12177;SDS011;6152;48.728;9.256;2023-03-01T03:43:03;17.17;;;10.63;;
12177;SDS011;6152;48.728;9.256;2023-03-01T03:45:31;18.33;;;10.53;;
12177;SDS011;6152;48.728;9.256;2023-03-01T03:47:58;18.23;;;10.50;;
12177;SDS011;6152;48.728;9.256;2023-03-01T03:50:25;20.57;;;11.30;;
12177;SDS011;6152;48.728;9.256;2023-03-01T03:52:51;20.93;;;11.00;;
12177;SDS011;6152;48.728;9.256;2023-03-01T03:55:17;18.73;;;10.90;;
12177;SDS011;6152;48.728;9.256;2023-03-01T03:57:44;19.03;;;10.70;;
12177;SDS011;6152;48.728;9.256;2023-03-01T04:00:20;17.80;;;10.93;;
12177;SDS011;6152;48.728;9.256;2023-03-01T04:02:49;18.57;;;11.13;;
12177;SDS011;6152;48.728;9.256;2023-03-01T04:05:16;18.70;;;11.10;;
12177;SDS011;6152;48.728;9.256;2023-03-01T04:07:43;23.00;;;11.40;;
12177;SDS011;6152;48.728;9.256;2023-03-01T04:10:11;17.83;;;10.40;;
12177;SDS011;6152;48.728;9.256;2023-03-01T04:12:39;18.60;;;11.13;;
12177;SDS011;6152;48.728;9.256;2023-03-01T04:15:08;20.70;;;11.33;;
12177;SDS011;6152;48.728;9.256;2023-03-01T04:17:45;18.13;;;11.17;;
12177;SDS011;6152;48.728;9.256;2023-03-01T04:20:13;19.93;;;11.97;;
12177;SDS011;6152;48.728;9.256;2023-03-01T04:22:49;18.97;;;11.33;;
12177;SDS011;6152;48.728;9.256;2023-03-01T04:25:22;22.43;;;10.87;;
12177;SDS011;6152;48.728;9.256;2023-03-01T04:27:48;18.93;;;11.00;;
12177;SDS011;6152;48.728;9.256;2023-03-01T04:30:15;17.33;;;11.43;;
12177;SDS011;6152;48.728;9.256;2023-03-01T04:32:41;20.47;;;11.37;;
12177;SDS011;6152;48.728;9.256;2023-03-01T04:35:08;20.73;;;11.70;;
12177;SDS011;6152;48.728;9.256;2023-03-01T04:37:34;20.47;;;11.60;;
12177;SDS011;6152;48.728;9.256;2023-03-01T04:40:01;18.10;;;10.73;;
12177;SDS011;6152;48.728;9.256;2023-03-01T04:42:40;19.43;;;11.60;;
12177;SDS011;6152;48.728;9.256;2023-03-01T04:45:07;19.70;;;11.27;;
12177;SDS011;6152;48.728;9.256;2023-03-01T04:47:38;19.93;;;11.33;;
12177;SDS011;6152;48.728;9.256;2023-03-01T04:50:05;18.67;;;10.90;;
12177;SDS011;6152;48.728;9.256;2023-03-01T04:52:32;19.13;;;11.73;;
12177;SDS011;6152;48.728;9.256;2023-03-01T04:54:59;19.23;;;11.73;;
12177;SDS011;6152;48.728;9.256;2023-03-01T04:57:25;18.13;;;11.27;;
12177;SDS011;6152;48.728;9.256;2023-03-01T04:59:51;21.93;;;11.20;;
12177;SDS011;6152;48.728;9.256;2023-03-01T05:02:17;19.60;;;11.03;;
12177;SDS011;6152;48.728;9.256;2023-03-01T05:04:43;19.13;;;11.53;;
12177;SDS011;6152;48.728;9.256;2023-03-01T05:07:09;20.87;;;11.77;;
12177;SDS011;6152;48.728;9.256;2023-03-01T05:09:37;23.33;;;12.03;;
12177;SDS011;6152;48.728;9.256;2023-03-01T05:12:04;21.87;;;12.00;;
12177;SDS011;6152;48.728;9.256;2023-03-01T05:14:30;17.00;;;10.93;;
12177;SDS011;6152;48.728;9.256;2023-03-01T05:16:56;20.60;;;11.30;;
12177;SDS011;6152;48.728;9.256;2023-03-01T05:19:28;19.37;;;11.00;;
12177;SDS011;6152;48.728;9.256;2023-03-01T05:21:56;18.13;;;10.77;;
12177;SDS011;6152;48.728;9.256;2023-03-01T05:24:32;20.77;;;11.80;;
12177;SDS011;6152;48.728;9.256;2023-03-01T05:27:00;18.07;;;10.17;;
12177;SDS011;6152;48.728;9.256;2023-03-01T05:29:27;19.03;;;12.13;;
12177;SDS011;6152;48.728;9.256;2023-03-01T05:31:55;22.73;;;11.90;;
12177;SDS011;6152;48.728;9.256;2023-03-01T05:34:27;20.60;;;12.47;;
12177;SDS011;6152;48.728;9.256;2023-03-01T05:36:55;21.70;;;11.93;;
12177;SDS011;6152;48.728;9.256;2023-03-01T05:39:22;19.27;;;11.47;;
12177;SDS011;6152;48.728;9.256;2023-03-01T05:41:57;20.47;;;11.43;;
12177;SDS011;6152;48.728;9.256;2023-03-01T05:44:25;19.83;;;11.37;;
12177;SDS011;6152;48.728;9.256;2023-03-01T05:46:55;21.43;;;11.63;;
12177;SDS011;6152;48.728;9.256;2023-03-01T05:49:21;18.60;;;11.03;;
12177;SDS011;6152;48.728;9.256;2023-03-01T05:51:51;19.03;;;11.47;;
12177;SDS011;6152;48.728;9.256;2023-03-01T05:54:19;18.50;;;11.27;;
12177;SDS011;6152;48.728;9.256;2023-03-01T05:56:46;19.33;;;11.23;;
12177;SDS011;6152;48.728;9.256;2023-03-01T05:59:13;20.20;;;11.20;;
12177;SDS011;6152;48.728;9.256;2023-03-01T06:01:41;19.20;;;11.27;;
12177;SDS011;6152;48.728;9.256;2023-03-01T06:04:07;16.00;;;10.83;;
12177;SDS011;6152;48.728;9.256;2023-03-01T06:06:34;19.23;;;10.77;;
12177;SDS011;6152;48.728;9.256;2023-03-01T06:09:04;18.63;;;10.93;;
12177;SDS011;6152;48.728;9.256;2023-03-01T06:11:33;18.07;;;11.27;;
12177;SDS011;6152;48.728;9.256;2023-03-01T06:14:00;20.07;;;11.60;;
12177;SDS011;6152;48.728;9.256;2023-03-01T06:16:26;20.80;;;11.47;;
12177;SDS011;6152;48.728;9.256;2023-03-01T06:18:52;20.33;;;11.63;;
12177;SDS011;6152;48.728;9.256;2023-03-01T06:21:18;20.83;;;11.27;;
12177;SDS011;6152;48.728;9.256;2023-03-01T06:23:44;19.40;;;11.43;;
12177;SDS011;6152;48.728;9.256;2023-03-01T06:26:10;18.10;;;11.03;;
12177;SDS011;6152;48.728;9.256;2023-03-01T06:28:36;18.23;;;11.57;;
12177;SDS011;6152;48.728;9.256;2023-03-01T06:31:03;20.10;;;10.67;;
12177;SDS011;6152;48.728;9.256;2023-03-01T06:33:33;22.70;;;11.63;;
12177;SDS011;6152;48.728;9.256;2023-03-01T06:35:59;18.87;;;11.40;;
12177;SDS011;6152;48.728;9.256;2023-03-01T06:38:25;21.37;;;11.87;;
12177;SDS011;6152;48.728;9.256;2023-03-01T06:40:52;18.80;;;11.40;;
12177;SDS011;6152;48.728;9.256;2023-03-01T06:43:20;20.97;;;11.43;;
12177;SDS011;6152;48.728;9.256;2023-03-01T06:45:46;20.63;;;11.47;;
12177;SDS011;6152;48.728;9.256;2023-03-01T06:48:12;17.67;;;10.67;;
12177;SDS011;6152;48.728;9.256;2023-03-01T06:50:38;17.90;;;11.13;;
12177;SDS011;6152;48.728;9.256;2023-03-01T06:53:04;21.03;;;12.70;;
12177;SDS011;6152;48.728;9.256;2023-03-01T06:55:31;17.50;;;11.23;;
12177;SDS011;6152;48.728;9.256;2023-03-01T06:57:58;20.37;;;11.00;;
12177;SDS011;6152;48.728;9.256;2023-03-01T07:00:26;20.50;;;11.60;;
12177;SDS011;6152;48.728;9.256;2023-03-01T07:02:53;19.70;;;12.10;;
12177;SDS011;6152;48.728;9.256;2023-03-01T07:05:20;19.30;;;11.53;;
12177;SDS011;6152;48.728;9.256;2023-03-01T07:07:46;24.93;;;11.37;;
12177;SDS011;6152;48.728;9.256;2023-03-01T07:10:12;19.23;;;11.87;;
12177;SDS011;6152;48.728;9.256;2023-03-01T07:12:38;22.87;;;12.23;;
12177;SDS011;6152;48.728;9.256;2023-03-01T07:15:06;22.53;;;12.50;;
12177;SDS011;6152;48.728;9.256;2023-03-01T07:17:34;22.23;;;12.83;;
12177;SDS011;6152;48.728;9.256;2023-03-01T07:20:00;20.23;;;11.90;;
12177;SDS011;6152;48.728;9.256;2023-03-01T07:22:26;21.30;;;12.43;;
12177;SDS011;6152;48.728;9.256;2023-03-01T07:24:52;20.90;;;12.00;;
12177;SDS011;6152;48.728;9.256;2023-03-01T07:27:18;20.80;;;11.83;;
12177;SDS011;6152;48.728;9.256;2023-03-01T07:29:44;20.87;;;12.17;;
12177;SDS011;6152;48.728;9.256;2023-03-01T07:32:10;19.83;;;12.07;;
12177;SDS011;6152;48.728;9.256;2023-03-01T07:34:37;21.80;;;12.40;;
12177;SDS011;6152;48.728;9.256;2023-03-01T07:37:03;22.83;;;12.53;;
12177;SDS011;6152;48.728;9.256;2023-03-01T07:39:29;20.97;;;12.13;;
12177;SDS011;6152;48.728;9.256;2023-03-01T07:41:55;20.83;;;12.03;;
12177;SDS011;6152;48.728;9.256;2023-03-01T07:44:21;18.83;;;11.20;;
12177;SDS011;6152;48.728;9.256;2023-03-01T07:46:47;20.03;;;12.33;;
12177;SDS011;6152;48.728;9.256;2023-03-01T07:49:13;19.03;;;11.90;;
12177;SDS011;6152;48.728;9.256;2023-03-01T07:51:39;18.50;;;11.57;;
12177;SDS011;6152;48.728;9.256;2023-03-01T07:54:06;20.57;;;12.37;;
12177;SDS011;6152;48.728;9.256;2023-03-01T07:56:33;24.13;;;12.77;;
12177;SDS011;6152;48.728;9.256;2023-03-01T07:58:59;19.03;;;12.20;;
12177;SDS011;6152;48.728;9.256;2023-03-01T08:01:25;20.97;;;12.10;;
12177;SDS011;6152;48.728;9.256;2023-03-01T08:03:51;17.97;;;11.67;;
12177;SDS011;6152;48.728;9.256;2023-03-01T08:06:17;19.52;;;11.98;;
12177;SDS011;6152;48.728;9.256;2023-03-01T08:08:44;20.33;;;12.07;;
12177;SDS011;6152;48.728;9.256;2023-03-01T08:11:11;21.43;;;12.20;;
12177;SDS011;6152;48.728;9.256;2023-03-01T08:13:39;19.87;;;11.57;;
12177;SDS011;6152;48.728;9.256;2023-03-01T08:16:07;19.70;;;12.23;;
12177;SDS011;6152;48.728;9.256;2023-03-01T08:18:35;20.10;;;11.73;;
12177;SDS011;6152;48.728;9.256;2023-03-01T08:21:05;23.43;;;12.53;;
12177;SDS011;6152;48.728;9.256;2023-03-01T08:23:36;20.93;;;12.67;;
12177;SDS011;6152;48.728;9.256;2023-03-01T08:26:21;19.53;;;11.67;;
12177;SDS011;6152;48.728;9.256;2023-03-01T08:28:47;20.13;;;11.90;;
12177;SDS011;6152;48.728;9.256;2023-03-01T08:33:49;21.33;;;12.57;;
12177;SDS011;6152;48.728;9.256;2023-03-01T08:36:20;19.65;;;12.10;;
12177;SDS011;6152;48.728;9.256;2023-03-01T08:38:50;20.97;;;12.00;;
12177;SDS011;6152;48.728;9.256;2023-03-01T08:41:17;18.40;;;11.97;;
12177;SDS011;6152;48.728;9.256;2023-03-01T08:43:43;21.43;;;12.60;;
12177;SDS011;6152;48.728;9.256;2023-03-01T08:46:10;17.23;;;11.60;;
12177;SDS011;6152;48.728;9.256;2023-03-01T08:48:36;22.08;;;13.07;;
12177;SDS011;6152;48.728;9.256;2023-03-01T08:51:18;20.38;;;11.55;;
12177;SDS011;6152;48.728;9.256;2023-03-01T08:53:45;26.33;;;12.88;;
12177;SDS011;6152;48.728;9.256;2023-03-01T08:56:12;23.20;;;12.55;;
12177;SDS011;6152;48.728;9.256;2023-03-01T08:58:39;24.90;;;13.20;;
12177;SDS011;6152;48.728;9.256;2023-03-01T09:01:12;19.67;;;12.00;;
12177;SDS011;6152;48.728;9.256;2023-03-01T09:03:39;17.75;;;12.15;;
12177;SDS011;6152;48.728;9.256;2023-03-01T09:06:06;19.27;;;11.82;;
12177;SDS011;6152;48.728;9.256;2023-03-01T09:08:40;17.63;;;11.45;;
12177;SDS011;6152;48.728;9.256;2023-03-01T09:11:10;20.33;;;11.75;;
12177;SDS011;6152;48.728;9.256;2023-03-01T09:13:40;21.48;;;13.32;;
12177;SDS011;6152;48.728;9.256;2023-03-01T09:16:07;19.48;;;12.30;;
12177;SDS011;6152;48.728;9.256;2023-03-01T09:18:33;19.10;;;12.80;;
12177;SDS011;6152;48.728;9.256;2023-03-01T09:21:04;18.58;;;11.77;;
12177;SDS011;6152;48.728;9.256;2023-03-01T09:23:32;18.98;;;11.75;;
12177;SDS011;6152;48.728;9.256;2023-03-01T09:26:04;22.77;;;13.00;;
12177;SDS011;6152;48.728;9.256;2023-03-01T09:28:34;20.67;;;11.60;;
12177;SDS011;6152;48.728;9.256;2023-03-01T09:31:01;30.15;;;13.95;;
12177;SDS011;6152;48.728;9.256;2023-03-01T09:33:29;17.05;;;11.70;;
12177;SDS011;6152;48.728;9.256;2023-03-01T09:36:00;15.48;;;11.27;;
12177;SDS011;6152;48.728;9.256;2023-03-01T09:38:28;20.73;;;11.52;;
12177;SDS011;6152;48.728;9.256;2023-03-01T09:40:55;18.52;;;11.68;;
12177;SDS011;6152;48.728;9.256;2023-03-01T09:43:27;18.92;;;12.15;;
12177;SDS011;6152;48.728;9.256;2023-03-01T09:46:05;18.50;;;11.68;;
12177;SDS011;6152;48.728;9.256;2023-03-01T09:48:38;18.95;;;11.38;;
12177;SDS011;6152;48.728;9.256;2023-03-01T09:51:18;18.60;;;12.38;;
12177;SDS011;6152;48.728;9.256;2023-03-01T09:53:58;17.50;;;11.90;;
12177;SDS011;6152;48.728;9.256;2023-03-01T09:56:41;15.15;;;11.88;;
12177;SDS011;6152;48.728;9.256;2023-03-01T10:02:26;15.75;;;11.30;;
12177;SDS011;6152;48.728;9.256;2023-03-01T10:10:10;15.88;;;11.93;;
12177;SDS011;6152;48.728;9.256;2023-03-01T10:12:50;14.73;;;11.85;;
12177;SDS011;6152;48.728;9.256;2023-03-01T10:15:19;14.88;;;12.25;;
12177;SDS011;6152;48.728;9.256;2023-03-01T10:18:01;15.68;;;12.48;;
12177;SDS011;6152;48.728;9.256;2023-03-01T10:23:15;15.35;;;11.80;;
12177;SDS011;6152;48.728;9.256;2023-03-01T10:29:08;15.57;;;13.15;;
12177;SDS011;6152;48.728;9.256;2023-03-01T10:34:22;14.57;;;13.07;;
12177;SDS011;6152;48.728;9.256;2023-03-01T10:39:36;14.00;;;12.30;;
12177;SDS011;6152;48.728;9.256;2023-03-01T10:42:19;13.93;;;12.43;;
12177;SDS011;6152;48.728;9.256;2023-03-01T10:44:58;14.18;;;12.77;;
12177;SDS011;6152;48.728;9.256;2023-03-01T10:47:40;15.35;;;12.88;;
12177;SDS011;6152;48.728;9.256;2023-03-01T10:50:22;14.10;;;12.65;;
12177;SDS011;6152;48.728;9.256;2023-03-01T10:52:56;13.70;;;12.25;;
12177;SDS011;6152;48.728;9.256;2023-03-01T10:55:27;27.75;;;12.98;;
12177;SDS011;6152;48.728;9.256;2023-03-01T10:58:07;13.52;;;12.13;;
12177;SDS011;6152;48.728;9.256;2023-03-01T11:00:54;14.68;;;12.45;;
12177;SDS011;6152;48.728;9.256;2023-03-01T11:03:25;13.70;;;12.18;;
12177;SDS011;6152;48.728;9.256;2023-03-01T11:08:33;14.18;;;12.45;;
12177;SDS011;6152;48.728;9.256;2023-03-01T11:14:03;15.63;;;13.05;;
12177;SDS011;6152;48.728;9.256;2023-03-01T11:16:45;13.82;;;12.38;;
12177;SDS011;6152;48.728;9.256;2023-03-01T11:19:22;13.52;;;12.10;;
12177;SDS011;6152;48.728;9.256;2023-03-01T11:21:57;13.80;;;12.40;;
12177;SDS011;6152;48.728;9.256;2023-03-01T11:24:31;13.95;;;12.18;;
12177;SDS011;6152;48.728;9.256;2023-03-01T11:27:04;13.43;;;12.07;;
12177;SDS011;6152;48.728;9.256;2023-03-01T11:29:39;13.10;;;11.90;;
12177;SDS011;6152;48.728;9.256;2023-03-01T11:32:12;13.65;;;12.25;;
12177;SDS011;6152;48.728;9.256;2023-03-01T11:34:51;13.75;;;12.32;;
12177;SDS011;6152;48.728;9.256;2023-03-01T11:37:44;12.80;;;11.57;;
12177;SDS011;6152;48.728;9.256;2023-03-01T11:45:57;13.13;;;11.82;;
12177;SDS011;6152;48.728;9.256;2023-03-01T11:48:53;13.30;;;11.90;;
12177;SDS011;6152;48.728;9.256;2023-03-01T11:51:50;15.05;;;12.30;;
12177;SDS011;6152;48.728;9.256;2023-03-01T12:00:13;14.45;;;12.93;;
12177;SDS011;6152;48.728;9.256;2023-03-01T12:11:11;25.88;;;13.35;;
12177;SDS011;6152;48.728;9.256;2023-03-01T12:14:05;13.82;;;12.52;;
12177;SDS011;6152;48.728;9.256;2023-03-01T12:22:39;12.55;;;11.25;;
12177;SDS011;6152;48.728;9.256;2023-03-01T12:27:56;12.68;;;11.48;;
12177;SDS011;6152;48.728;9.256;2023-03-01T12:38:41;13.35;;;11.27;;
12177;SDS011;6152;48.728;9.256;2023-03-01T12:44:04;12.85;;;11.65;;
12177;SDS011;6152;48.728;9.256;2023-03-01T12:46:41;12.93;;;11.68;;
12177;SDS011;6152;48.728;9.256;2023-03-01T12:50:24;12.45;;;11.20;;
12177;SDS011;6152;48.728;9.256;2023-03-01T12:55:07;14.10;;;11.82;;
12177;SDS011;6152;48.728;9.256;2023-03-01T12:58:05;12.63;;;11.27;;
12177;SDS011;6152;48.728;9.256;2023-03-01T13:08:53;13.18;;;11.52;;
12177;SDS011;6152;48.728;9.256;2023-03-01T13:11:36;16.63;;;11.48;;
12177;SDS011;6152;48.728;9.256;2023-03-01T13:16:46;21.75;;;11.27;;
12177;SDS011;6152;48.728;9.256;2023-03-01T13:19:19;13.40;;;10.80;;
12177;SDS011;6152;48.728;9.256;2023-03-01T13:21:48;13.80;;;11.05;;
12177;SDS011;6152;48.728;9.256;2023-03-01T13:29:44;14.77;;;10.43;;
12177;SDS011;6152;48.728;9.256;2023-03-01T13:34:57;14.85;;;10.02;;
12177;SDS011;6152;48.728;9.256;2023-03-01T13:37:28;15.13;;;10.77;;
12177;SDS011;6152;48.728;9.256;2023-03-01T13:40:01;14.48;;;9.57;;
12177;SDS011;6152;48.728;9.256;2023-03-01T13:42:51;14.43;;;9.52;;
12177;SDS011;6152;48.728;9.256;2023-03-01T13:45:20;14.43;;;9.60;;
12177;SDS011;6152;48.728;9.256;2023-03-01T13:47:54;15.10;;;10.38;;
12177;SDS011;6152;48.728;9.256;2023-03-01T13:50:28;16.85;;;10.18;;
12177;SDS011;6152;48.728;9.256;2023-03-01T13:52:59;16.38;;;10.15;;
12177;SDS011;6152;48.728;9.256;2023-03-01T13:58:46;15.57;;;9.38;;
12177;SDS011;6152;48.728;9.256;2023-03-01T14:01:21;12.15;;;8.85;;
12177;SDS011;6152;48.728;9.256;2023-03-01T14:03:48;18.73;;;9.50;;
12177;SDS011;6152;48.728;9.256;2023-03-01T14:06:20;13.05;;;8.82;;
12177;SDS011;6152;48.728;9.256;2023-03-01T14:09:05;14.02;;;9.40;;
12177;SDS011;6152;48.728;9.256;2023-03-01T14:12:06;12.43;;;8.93;;
12177;SDS011;6152;48.728;9.256;2023-03-01T14:15:06;15.05;;;9.90;;
12177;SDS011;6152;48.728;9.256;2023-03-01T14:20:20;15.85;;;10.52;;
12177;SDS011;6152;48.728;9.256;2023-03-01T14:22:52;16.35;;;11.05;;
12177;SDS011;6152;48.728;9.256;2023-03-01T14:25:28;15.52;;;10.05;;
12177;SDS011;6152;48.728;9.256;2023-03-01T14:30:40;15.73;;;10.73;;
12177;SDS011;6152;48.728;9.256;2023-03-01T14:35:58;17.35;;;10.80;;
12177;SDS011;6152;48.728;9.256;2023-03-01T14:38:43;17.30;;;10.73;;
12177;SDS011;6152;48.728;9.256;2023-03-01T14:43:46;16.08;;;10.80;;
12177;SDS011;6152;48.728;9.256;2023-03-01T14:48:51;17.80;;;10.27;;
12177;SDS011;6152;48.728;9.256;2023-03-01T14:51:21;16.10;;;10.70;;
12177;SDS011;6152;48.728;9.256;2023-03-01T14:53:47;15.45;;;10.85;;
12177;SDS011;6152;48.728;9.256;2023-03-01T14:56:15;18.15;;;11.30;;
12177;SDS011;6152;48.728;9.256;2023-03-01T14:58:44;18.85;;;10.35;;
12177;SDS011;6152;48.728;9.256;2023-03-01T15:01:14;16.00;;;10.43;;
12177;SDS011;6152;48.728;9.256;2023-03-01T15:03:46;16.27;;;10.45;;
12177;SDS011;6152;48.728;9.256;2023-03-01T15:06:15;17.13;;;9.88;;
12177;SDS011;6152;48.728;9.256;2023-03-01T15:08:46;16.00;;;9.65;;
12177;SDS011;6152;48.728;9.256;2023-03-01T15:11:28;14.30;;;9.65;;
12177;SDS011;6152;48.728;9.256;2023-03-01T15:13:56;14.57;;;9.98;;
12177;SDS011;6152;48.728;9.256;2023-03-01T15:16:33;14.23;;;9.02;;
12177;SDS011;6152;48.728;9.256;2023-03-01T15:19:05;12.95;;;9.63;;
12177;SDS011;6152;48.728;9.256;2023-03-01T15:24:08;14.00;;;9.50;;
12177;SDS011;6152;48.728;9.256;2023-03-01T15:27:04;15.77;;;9.95;;
12177;SDS011;6152;48.728;9.256;2023-03-01T15:29:39;15.75;;;9.88;;
12177;SDS011;6152;48.728;9.256;2023-03-01T15:32:29;15.63;;;9.90;;
12177;SDS011;6152;48.728;9.256;2023-03-01T15:35:00;15.05;;;9.65;;
12177;SDS011;6152;48.728;9.256;2023-03-01T15:37:47;14.77;;;9.60;;
12177;SDS011;6152;48.728;9.256;2023-03-01T15:42:56;14.88;;;10.15;;
12177;SDS011;6152;48.728;9.256;2023-03-01T15:45:27;14.70;;;10.18;;
12177;SDS011;6152;48.728;9.256;2023-03-01T15:47:55;17.67;;;11.00;;
12177;SDS011;6152;48.728;9.256;2023-03-01T15:50:27;15.23;;;10.00;;
12177;SDS011;6152;48.728;9.256;2023-03-01T15:52:58;17.45;;;9.93;;
12177;SDS011;6152;48.728;9.256;2023-03-01T15:55:26;17.60;;;10.80;;
12177;SDS011;6152;48.728;9.256;2023-03-01T15:58:14;16.02;;;10.05;;
12177;SDS011;6152;48.728;9.256;2023-03-01T16:00:43;15.07;;;9.93;;
12177;SDS011;6152;48.728;9.256;2023-03-01T16:03:10;15.50;;;10.80;;
12177;SDS011;6152;48.728;9.256;2023-03-01T16:05:37;15.70;;;9.95;;
12177;SDS011;6152;48.728;9.256;2023-03-01T16:08:04;15.82;;;10.70;;
12177;SDS011;6152;48.728;9.256;2023-03-01T16:10:32;16.25;;;10.98;;
12177;SDS011;6152;48.728;9.256;2023-03-01T16:12:58;17.35;;;11.38;;
12177;SDS011;6152;48.728;9.256;2023-03-01T16:15:34;20.23;;;11.48;;
12177;SDS011;6152;48.728;9.256;2023-03-01T16:18:01;19.00;;;12.20;;
12177;SDS011;6152;48.728;9.256;2023-03-01T16:20:28;17.70;;;11.00;;
12177;SDS011;6152;48.728;9.256;2023-03-01T16:22:55;18.40;;;11.77;;
12177;SDS011;6152;48.728;9.256;2023-03-01T16:25:25;20.45;;;11.48;;
12177;SDS011;6152;48.728;9.256;2023-03-01T16:27:51;18.90;;;11.73;;
12177;SDS011;6152;48.728;9.256;2023-03-01T16:30:20;18.63;;;11.07;;
12177;SDS011;6152;48.728;9.256;2023-03-01T16:32:48;18.40;;;11.52;;
12177;SDS011;6152;48.728;9.256;2023-03-01T16:35:15;17.70;;;11.45;;
12177;SDS011;6152;48.728;9.256;2023-03-01T16:37:43;16.58;;;10.57;;
12177;SDS011;6152;48.728;9.256;2023-03-01T16:42:44;18.15;;;11.18;;
12177;SDS011;6152;48.728;9.256;2023-03-01T16:45:10;21.05;;;12.10;;
12177;SDS011;6152;48.728;9.256;2023-03-01T16:47:37;18.20;;;10.82;;
12177;SDS011;6152;48.728;9.256;2023-03-01T16:50:03;19.35;;;11.40;;
12177;SDS011;6152;48.728;9.256;2023-03-01T16:52:29;16.92;;;10.63;;
12177;SDS011;6152;48.728;9.256;2023-03-01T16:54:55;17.95;;;11.18;;
12177;SDS011;6152;48.728;9.256;2023-03-01T16:57:22;20.88;;;11.90;;
12177;SDS011;6152;48.728;9.256;2023-03-01T16:59:51;17.98;;;10.70;;
12177;SDS011;6152;48.728;9.256;2023-03-01T17:02:18;19.20;;;10.45;;
12177;SDS011;6152;48.728;9.256;2023-03-01T17:04:45;19.60;;;11.15;;